createdAt,value
2017-08-09T00:00:15.876Z,11.05
2017-08-09T00:02:44.774Z,10.73
2017-08-09T00:05:13.674Z,11.25
2017-08-09T00:07:42.547Z,11.05
2017-08-09T00:10:11.436Z,8.95
2017-08-09T00:12:40.350Z,10.52
2017-08-09T00:15:09.267Z,11.55
2017-08-09T00:17:38.879Z,9.18
2017-08-09T00:20:08.525Z,8.88
2017-08-09T00:22:37.425Z,13.02
2017-08-09T00:25:06.329Z,10.55
2017-08-09T00:27:35.239Z,13.95
2017-08-09T00:30:04.113Z,9.70
2017-08-09T00:32:33.019Z,9.60
2017-08-09T00:35:01.917Z,13.82
2017-08-09T00:37:30.825Z,16.10
2017-08-09T00:40:00.490Z,10.23
2017-08-09T00:42:29.405Z,10.80
2017-08-09T00:44:59.099Z,10.25
2017-08-09T00:47:27.988Z,10.20
2017-08-09T00:49:56.885Z,12.23
2017-08-09T00:52:25.777Z,10.40
2017-08-09T00:54:54.675Z,9.00
2017-08-09T00:57:23.580Z,10.52
2017-08-09T00:59:53.206Z,9.85
2017-08-09T01:02:22.110Z,18.15
2017-08-09T01:04:51.011Z,12.95
2017-08-09T01:07:19.911Z,12.95
2017-08-09T01:09:48.805Z,11.85
2017-08-09T01:12:17.706Z,13.02
2017-08-09T01:14:46.599Z,9.68
2017-08-09T01:17:15.481Z,9.68
2017-08-09T01:19:44.402Z,9.90
2017-08-09T01:22:13.288Z,10.30
2017-08-09T01:24:42.184Z,19.08
2017-08-09T01:27:10.726Z,10.65
2017-08-09T01:29:39.623Z,11.50
2017-08-09T01:32:09.068Z,10.45
2017-08-09T01:34:37.934Z,10.30
2017-08-09T01:37:06.821Z,9.90
2017-08-09T01:39:35.709Z,10.27
2017-08-09T01:42:03.919Z,11.10
2017-08-09T01:44:32.791Z,12.63
2017-08-09T01:47:01.673Z,10.23
2017-08-09T01:49:30.568Z,13.23
2017-08-09T01:51:59.461Z,10.55
2017-08-09T01:54:28.366Z,14.30
2017-08-09T01:56:56.920Z,14.68
2017-08-09T01:59:25.828Z,13.45
2017-08-09T02:01:54.028Z,13.68
2017-08-09T02:04:23.778Z,12.43
2017-08-09T02:07:02.809Z,10.68
2017-08-09T02:09:39.336Z,9.25
2017-08-09T02:12:08.229Z,11.32
2017-08-09T02:14:37.126Z,10.95
2017-08-09T02:17:06.672Z,9.88
2017-08-09T02:19:35.586Z,10.52
2017-08-09T02:22:04.473Z,10.15
2017-08-09T02:24:33.376Z,10.38
2017-08-09T02:27:02.268Z,12.18
2017-08-09T02:29:31.190Z,11.50
2017-08-09T02:32:00.104Z,14.27
2017-08-09T02:34:29.772Z,10.10
2017-08-09T02:36:58.689Z,11.95
2017-08-09T02:39:27.605Z,12.48
2017-08-09T02:41:57.242Z,11.88
2017-08-09T02:44:26.133Z,11.65
2017-08-09T02:46:55.000Z,13.20
2017-08-09T02:49:23.896Z,10.77
2017-08-09T02:51:53.543Z,11.38
2017-08-09T02:54:22.449Z,9.57
2017-08-09T02:56:51.358Z,11.18
2017-08-09T02:59:20.250Z,10.70
2017-08-09T03:01:49.154Z,13.45
2017-08-09T03:04:18.817Z,10.48
2017-08-09T03:06:47.720Z,13.55
2017-08-09T03:09:16.622Z,9.88
2017-08-09T03:11:45.538Z,11.27
2017-08-09T03:14:14.429Z,10.10
2017-08-09T03:16:46.381Z,10.60
2017-08-09T03:19:17.836Z,10.40
2017-08-09T03:21:54.247Z,9.80
2017-08-09T03:24:23.106Z,11.45
2017-08-09T03:26:52.168Z,9.70
2017-08-09T03:29:21.055Z,9.98
2017-08-09T03:31:49.957Z,11.27
2017-08-09T03:34:18.895Z,13.98
2017-08-09T03:36:48.548Z,10.45
2017-08-09T03:39:18.402Z,10.98
2017-08-09T03:41:47.309Z,12.05
2017-08-09T03:44:16.219Z,10.60
2017-08-09T03:46:45.126Z,11.50
2017-08-09T03:49:14.030Z,11.35
2017-08-09T03:51:42.950Z,14.15
2017-08-09T03:54:11.511Z,12.00
2017-08-09T03:56:40.434Z,11.40
2017-08-09T03:59:09.337Z,13.02
2017-08-09T04:01:39.010Z,12.88
2017-08-09T04:04:07.878Z,13.13
2017-08-09T04:06:36.768Z,11.30
2017-08-09T04:09:04.994Z,16.87
2017-08-09T04:11:33.888Z,10.30
2017-08-09T04:14:02.803Z,11.50
2017-08-09T04:16:31.705Z,12.10
2017-08-09T04:19:00.592Z,10.70
2017-08-09T04:21:29.499Z,11.45
2017-08-09T04:23:58.354Z,11.18
2017-08-09T04:26:28.860Z,14.02
2017-08-09T04:28:57.748Z,10.93
2017-08-09T04:31:26.653Z,11.02
2017-08-09T04:34:01.893Z,12.68
2017-08-09T04:36:30.792Z,11.15
2017-08-09T04:39:00.436Z,10.15
2017-08-09T04:41:29.312Z,11.95
2017-08-09T04:43:58.948Z,11.68
2017-08-09T04:46:27.845Z,13.05
2017-08-09T04:48:56.740Z,12.30
2017-08-09T04:51:25.633Z,12.43
2017-08-09T04:53:54.533Z,11.55
2017-08-09T04:56:23.421Z,10.73
2017-08-09T04:58:52.321Z,14.10
2017-08-09T05:01:21.230Z,13.77
2017-08-09T05:03:50.116Z,14.13
2017-08-09T05:06:19.019Z,11.48
2017-08-09T05:08:50.102Z,10.00
2017-08-09T05:11:19.009Z,11.65
2017-08-09T05:13:47.883Z,14.50
2017-08-09T05:16:16.773Z,14.38
2017-08-09T05:18:45.669Z,20.23
2017-08-09T05:21:15.309Z,9.60
2017-08-09T05:23:48.104Z,9.60
2017-08-09T05:26:18.393Z,11.88
2017-08-09T05:28:47.840Z,9.30
2017-08-09T05:31:16.732Z,10.80
2017-08-09T05:33:45.621Z,9.52
2017-08-09T05:36:14.521Z,8.88
2017-08-09T05:38:43.509Z,10.10
2017-08-09T05:41:12.400Z,10.52
2017-08-09T05:43:42.216Z,10.77
2017-08-09T05:46:11.128Z,11.40
2017-08-09T05:48:40.355Z,9.57
2017-08-09T05:51:10.001Z,7.85
2017-08-09T05:53:38.896Z,11.00
2017-08-09T05:56:07.760Z,11.07
2017-08-09T05:58:36.615Z,8.52
2017-08-09T06:01:05.502Z,8.65
2017-08-09T06:03:34.390Z,8.00
2017-08-09T06:06:03.269Z,10.45
2017-08-09T06:08:32.161Z,11.18
2017-08-09T06:11:01.047Z,9.73
2017-08-09T06:13:29.974Z,6.95
2017-08-09T06:15:59.610Z,7.72
2017-08-09T06:18:28.498Z,6.15
2017-08-09T06:21:16.759Z,6.18
2017-08-09T06:23:45.650Z,8.63
2017-08-09T06:26:14.570Z,12.25
2017-08-09T06:34:03.458Z,7.43
2017-08-09T06:36:32.346Z,8.15
2017-08-09T06:39:01.532Z,10.27
2017-08-09T06:41:30.412Z,8.05
2017-08-09T06:43:59.307Z,8.85
2017-08-09T06:46:28.196Z,11.88
2017-08-09T06:48:57.124Z,8.85
2017-08-09T06:51:26.023Z,8.85
2017-08-09T06:53:54.926Z,11.00
2017-08-09T06:56:23.826Z,7.47
2017-08-09T07:04:40.740Z,9.32
2017-08-09T13:20:39.713Z,4.53
2017-08-09T13:39:08.327Z,3.83
2017-08-09T14:20:01.573Z,5.33
2017-08-09T14:28:53.915Z,5.77
2017-08-09T14:41:18.465Z,8.80
2017-08-09T15:05:44.742Z,5.50
2017-08-09T21:19:06.706Z,6.95
2017-08-09T21:21:43.398Z,6.40
2017-08-09T21:24:35.797Z,6.15
2017-08-09T21:33:23.832Z,5.15
2017-08-09T21:46:46.266Z,5.50
2017-08-09T21:49:15.481Z,6.05
2017-08-09T21:51:44.897Z,5.12
2017-08-09T21:54:13.846Z,8.32
2017-08-09T21:56:43.577Z,15.38
2017-08-09T21:59:13.252Z,5.12
2017-08-09T22:01:42.233Z,6.45
2017-08-09T22:04:13.132Z,5.00
2017-08-09T22:06:44.230Z,6.47
2017-08-09T22:09:14.406Z,6.05
2017-08-09T22:11:44.313Z,7.62
2017-08-09T22:14:13.248Z,7.43
2017-08-09T22:16:42.638Z,5.60
2017-08-09T22:19:16.559Z,5.05
2017-08-09T22:21:49.908Z,5.10
2017-08-09T22:24:18.803Z,5.00
2017-08-09T22:26:47.686Z,8.32
2017-08-09T22:29:16.863Z,7.12
2017-08-09T22:31:46.494Z,7.28
2017-08-09T22:34:15.398Z,6.85
2017-08-09T22:36:44.296Z,9.20
2017-08-09T22:39:13.179Z,9.98
2017-08-09T22:41:42.076Z,6.97
2017-08-09T22:44:10.965Z,6.47
2017-08-09T22:46:39.857Z,9.50
2017-08-09T22:49:08.767Z,7.87
2017-08-09T22:51:37.688Z,11.45
2017-08-09T22:54:07.072Z,10.55
2017-08-09T22:56:35.965Z,10.07
2017-08-09T22:59:04.870Z,10.98
2017-08-09T23:01:33.761Z,10.23
2017-08-09T23:04:02.678Z,10.25
2017-08-09T23:06:32.350Z,9.65
2017-08-09T23:09:01.256Z,10.27
2017-08-09T23:11:30.182Z,12.50
2017-08-09T23:13:59.858Z,11.88
2017-08-09T23:16:28.771Z,10.40
2017-08-09T23:18:58.443Z,11.20
2017-08-09T23:21:27.351Z,10.55
2017-08-09T23:23:56.215Z,14.35
2017-08-09T23:26:25.133Z,14.40
2017-08-09T23:28:54.043Z,12.25
2017-08-09T23:31:23.713Z,15.75
2017-08-09T23:33:52.629Z,15.32
2017-08-09T23:36:21.603Z,14.38
2017-08-09T23:38:50.518Z,15.55
2017-08-09T23:41:19.178Z,13.98
2017-08-09T23:43:48.093Z,15.88
2017-08-09T23:46:17.007Z,16.17
2017-08-09T23:48:46.714Z,13.52
2017-08-09T23:51:16.418Z,15.00
2017-08-09T23:53:45.335Z,14.20
2017-08-09T23:56:14.250Z,14.48
2017-08-09T23:58:43.160Z,18.27
